sensor_id;sensor_type;location;lat;lon;timestamp;pressure;altitude;pressure_sealevel;temperature;humidity
77288;BME280;66345;42.694;23.346;2023-03-04T00:02:18;95565.16;;;6.46;75.53
77288;BME280;66345;42.694;23.346;2023-03-04T00:04:44;95565.94;;;6.30;75.89
77288;BME280;66345;42.694;23.346;2023-03-04T00:07:10;95567.31;;;6.50;75.15
77288;BME280;66345;42.694;23.346;2023-03-04T00:09:41;95566.16;;;6.53;75.23
77288;BME280;66345;42.694;23.346;2023-03-04T00:12:07;95564.88;;;6.65;75.51
77288;BME280;66345;42.694;23.346;2023-03-04T00:14:32;95561.88;;;6.60;74.79
77288;BME280;66345;42.694;23.346;2023-03-04T00:16:58;95559.91;;;6.62;74.61
77288;BME280;66345;42.694;23.346;2023-03-04T00:19:23;95560.53;;;6.48;74.43
77288;BME280;66345;42.694;23.346;2023-03-04T00:21:49;95555.25;;;6.48;75.49
77288;BME280;66345;42.694;23.346;2023-03-04T00:24:14;95557.25;;;6.46;75.75
77288;BME280;66345;42.694;23.346;2023-03-04T00:26:40;95551.44;;;6.42;75.97
77288;BME280;66345;42.694;23.346;2023-03-04T00:29:05;95553.94;;;6.35;76.28
77288;BME280;66345;42.694;23.346;2023-03-04T00:31:30;95552.31;;;6.51;75.14
77288;BME280;66345;42.694;23.346;2023-03-04T00:33:56;95555.38;;;6.22;75.93
77288;BME280;66345;42.694;23.346;2023-03-04T00:36:21;95541.81;;;6.08;76.61
77288;BME280;66345;42.694;23.346;2023-03-04T00:38:47;95537.94;;;6.29;76.45
77288;BME280;66345;42.694;23.346;2023-03-04T00:41:12;95537.16;;;6.53;75.57
77288;BME280;66345;42.694;23.346;2023-03-04T00:43:38;95545.53;;;6.40;75.99
77288;BME280;66345;42.694;23.346;2023-03-04T00:46:03;95546.69;;;6.46;76.30
77288;BME280;66345;42.694;23.346;2023-03-04T00:48:29;95548.47;;;6.21;76.90
77288;BME280;66345;42.694;23.346;2023-03-04T00:50:54;95540.34;;;6.06;77.29
77288;BME280;66345;42.694;23.346;2023-03-04T00:53:20;95541.81;;;6.08;76.99
77288;BME280;66345;42.694;23.346;2023-03-04T00:55:47;95536.38;;;6.10;76.29
77288;BME280;66345;42.694;23.346;2023-03-04T00:58:12;95536.38;;;6.10;76.53
77288;BME280;66345;42.694;23.346;2023-03-04T01:00:37;95535.78;;;6.24;76.80
77288;BME280;66345;42.694;23.346;2023-03-04T01:03:03;95535.16;;;6.38;76.01
77288;BME280;66345;42.694;23.346;2023-03-04T01:05:29;95536.78;;;6.31;75.72
77288;BME280;66345;42.694;23.346;2023-03-04T01:07:54;95543.06;;;6.47;75.99
77288;BME280;66345;42.694;23.346;2023-03-04T01:10:19;95545.69;;;6.30;76.30
77288;BME280;66345;42.694;23.346;2023-03-04T01:12:45;95542.50;;;6.19;75.60
77288;BME280;66345;42.694;23.346;2023-03-04T01:15:12;95543.38;;;6.27;76.20
77288;BME280;66345;42.694;23.346;2023-03-04T01:17:38;95541.81;;;6.08;76.42
77288;BME280;66345;42.694;23.346;2023-03-04T01:20:04;95535.41;;;6.19;75.69
77288;BME280;66345;42.694;23.346;2023-03-04T01:22:29;95535.78;;;6.24;75.80
77288;BME280;66345;42.694;23.346;2023-03-04T01:24:55;95526.69;;;6.19;75.33
77288;BME280;66345;42.694;23.346;2023-03-04T01:27:20;95519.75;;;6.09;76.11
77288;BME280;66345;42.694;23.346;2023-03-04T01:29:46;95522.19;;;6.03;76.27
77288;BME280;66345;42.694;23.346;2023-03-04T01:32:11;95518.59;;;6.12;75.98
77288;BME280;66345;42.694;23.346;2023-03-04T01:34:37;95520.25;;;6.05;75.44
77288;BME280;66345;42.694;23.346;2023-03-04T01:37:02;95527.84;;;6.16;76.01
77288;BME280;66345;42.694;23.346;2023-03-04T01:39:28;95515.53;;;6.25;75.87
77288;BME280;66345;42.694;23.346;2023-03-04T01:41:54;95515.66;;;6.15;75.81
77288;BME280;66345;42.694;23.346;2023-03-04T01:44:20;95514.22;;;6.21;76.03
77288;BME280;66345;42.694;23.346;2023-03-04T01:46:48;95498.41;;;6.29;75.58
77288;BME280;66345;42.694;23.346;2023-03-04T01:49:15;95501.53;;;6.24;75.42
77288;BME280;66345;42.694;23.346;2023-03-04T01:51:47;95498.72;;;6.26;75.64
77288;BME280;66345;42.694;23.346;2023-03-04T01:54:15;95502.50;;;6.23;75.95
77288;BME280;66345;42.694;23.346;2023-03-04T01:56:43;95504.78;;;6.18;75.79
77288;BME280;66345;42.694;23.346;2023-03-04T02:01:35;95491.56;;;5.94;76.00
77288;BME280;66345;42.694;23.346;2023-03-04T02:04:01;95497.09;;;5.82;77.04
77288;BME280;66345;42.694;23.346;2023-03-04T02:06:26;95488.75;;;5.95;76.92
77288;BME280;66345;42.694;23.346;2023-03-04T02:08:52;95492.59;;;6.09;76.40
77288;BME280;66345;42.694;23.346;2023-03-04T02:11:18;95498.03;;;6.07;75.83
77288;BME280;66345;42.694;23.346;2023-03-04T02:13:43;95497.50;;;6.04;76.28
77288;BME280;66345;42.694;23.346;2023-03-04T02:16:09;95490.22;;;5.90;75.67
77288;BME280;66345;42.694;23.346;2023-03-04T02:18:34;95494.22;;;6.02;76.18
77288;BME280;66345;42.694;23.346;2023-03-04T02:26:20;95488.28;;;6.00;75.82
77288;BME280;66345;42.694;23.346;2023-03-04T02:28:49;95495.56;;;6.06;75.48
77288;BME280;66345;42.694;23.346;2023-03-04T02:31:37;95492.75;;;6.07;76.01
77288;BME280;66345;42.694;23.346;2023-03-04T02:34:12;95493.88;;;5.97;75.57
77288;BME280;66345;42.694;23.346;2023-03-04T02:36:39;95493.91;;;6.05;75.39
77288;BME280;66345;42.694;23.346;2023-03-04T02:41:50;95486.91;;;5.88;75.95
77288;BME280;66345;42.694;23.346;2023-03-04T02:44:26;95491.13;;;6.06;75.54
77288;BME280;66345;42.694;23.346;2023-03-04T02:46:53;95486.31;;;6.02;75.71
77288;BME280;66345;42.694;23.346;2023-03-04T02:49:20;95481.88;;;6.02;75.35
77288;BME280;66345;42.694;23.346;2023-03-04T02:51:45;95490.09;;;5.99;75.80
77288;BME280;66345;42.694;23.346;2023-03-04T02:54:18;95482.38;;;5.64;76.94
77288;BME280;66345;42.694;23.346;2023-03-04T02:56:46;95488.44;;;5.56;77.29
77288;BME280;66345;42.694;23.346;2023-03-04T02:59:12;95478.63;;;5.32;77.61
77288;BME280;66345;42.694;23.346;2023-03-04T03:01:38;95480.63;;;5.12;78.75
77288;BME280;66345;42.694;23.346;2023-03-04T03:04:03;95482.59;;;5.10;78.56
77288;BME280;66345;42.694;23.346;2023-03-04T03:06:29;95478.56;;;4.98;79.33
77288;BME280;66345;42.694;23.346;2023-03-04T03:08:54;95484.66;;;4.98;79.88
77288;BME280;66345;42.694;23.346;2023-03-04T03:11:20;95488.19;;;5.07;79.14
77288;BME280;66345;42.694;23.346;2023-03-04T03:13:46;95482.88;;;5.33;78.50
77288;BME280;66345;42.694;23.346;2023-03-04T03:16:11;95488.56;;;5.20;78.62
77288;BME280;66345;42.694;23.346;2023-03-04T03:18:37;95490.38;;;4.94;78.51
77288;BME280;66345;42.694;23.346;2023-03-04T03:21:02;95482.56;;;4.58;80.06
77288;BME280;66345;42.694;23.346;2023-03-04T03:23:29;95492.50;;;4.47;80.75
77288;BME280;66345;42.694;23.346;2023-03-04T03:25:54;95493.75;;;4.42;80.45
77288;BME280;66345;42.694;23.346;2023-03-04T03:28:19;95497.03;;;4.44;80.56
77288;BME280;66345;42.694;23.346;2023-03-04T03:30:45;95488.06;;;4.47;80.40
77288;BME280;66345;42.694;23.346;2023-03-04T03:33:10;95485.13;;;4.32;81.49
77288;BME280;66345;42.694;23.346;2023-03-04T03:35:36;95488.66;;;4.41;80.94
77288;BME280;66345;42.694;23.346;2023-03-04T03:38:01;95479.84;;;4.50;80.61
77288;BME280;66345;42.694;23.346;2023-03-04T03:40:26;95477.31;;;4.23;81.15
77288;BME280;66345;42.694;23.346;2023-03-04T03:42:52;95486.72;;;4.25;81.38
77288;BME280;66345;42.694;23.346;2023-03-04T03:45:17;95481.34;;;4.53;80.13
77288;BME280;66345;42.694;23.346;2023-03-04T03:47:43;95477.47;;;4.57;80.24
77288;BME280;66345;42.694;23.346;2023-03-04T03:50:08;95481.75;;;4.40;79.64
77288;BME280;66345;42.694;23.346;2023-03-04T03:52:34;95480.03;;;4.31;80.31
77288;BME280;66345;42.694;23.346;2023-03-04T03:54:59;95474.09;;;4.47;80.28
77288;BME280;66345;42.694;23.346;2023-03-04T03:57:28;95474.44;;;4.69;79.88
77288;BME280;66345;42.694;23.346;2023-03-04T03:59:54;95463.41;;;4.66;78.63
77288;BME280;66345;42.694;23.346;2023-03-04T04:02:20;95466.28;;;4.55;79.06
77288;BME280;66345;42.694;23.346;2023-03-04T04:04:46;95469.78;;;4.45;79.20
77288;BME280;66345;42.694;23.346;2023-03-04T04:07:12;95467.63;;;4.41;79.24
77288;BME280;66345;42.694;23.346;2023-03-04T04:09:37;95452.91;;;4.48;79.07
77288;BME280;66345;42.694;23.346;2023-03-04T04:12:05;95460.50;;;4.33;79.04
77288;BME280;66345;42.694;23.346;2023-03-04T04:14:30;95462.19;;;4.16;80.49
77288;BME280;66345;42.694;23.346;2023-03-04T04:16:56;95461.19;;;4.17;80.13
77288;BME280;66345;42.694;23.346;2023-03-04T04:19:21;95467.25;;;4.00;81.11
77288;BME280;66345;42.694;23.346;2023-03-04T04:21:47;95466.97;;;3.85;81.68
77288;BME280;66345;42.694;23.346;2023-03-04T04:24:13;95473.06;;;3.76;81.68
77288;BME280;66345;42.694;23.346;2023-03-04T04:26:39;95464.84;;;3.61;82.34
77288;BME280;66345;42.694;23.346;2023-03-04T04:29:04;95459.75;;;3.87;81.95
77288;BME280;66345;42.694;23.346;2023-03-04T04:31:30;95462.28;;;3.79;81.35
77288;BME280;66345;42.694;23.346;2023-03-04T04:33:55;95454.75;;;3.67;82.67
77288;BME280;66345;42.694;23.346;2023-03-04T04:36:21;95465.44;;;3.83;81.70
77288;BME280;66345;42.694;23.346;2023-03-04T04:38:46;95466.72;;;3.79;81.36
77288;BME280;66345;42.694;23.346;2023-03-04T04:41:21;95463.34;;;3.86;81.69
77288;BME280;66345;42.694;23.346;2023-03-04T04:43:48;95461.06;;;3.74;82.38
77288;BME280;66345;42.694;23.346;2023-03-04T04:46:14;95465.25;;;3.67;82.18
77288;BME280;66345;42.694;23.346;2023-03-04T04:48:40;95465.78;;;3.70;80.73
77288;BME280;66345;42.694;23.346;2023-03-04T04:51:06;95467.81;;;3.76;81.23
77288;BME280;66345;42.694;23.346;2023-03-04T04:53:32;95469.09;;;3.72;81.18
77288;BME280;66345;42.694;23.346;2023-03-04T04:55:57;95459.59;;;3.71;81.49
77288;BME280;66345;42.694;23.346;2023-03-04T04:58:23;95465.81;;;4.06;80.57
77288;BME280;66345;42.694;23.346;2023-03-04T05:00:48;95478.00;;;4.25;80.11
77288;BME280;66345;42.694;23.346;2023-03-04T05:03:14;95471.97;;;3.97;79.55
77288;BME280;66345;42.694;23.346;2023-03-04T05:05:39;95486.84;;;4.06;80.54
77288;BME280;66345;42.694;23.346;2023-03-04T05:08:04;95489.03;;;4.10;79.86
77288;BME280;66345;42.694;23.346;2023-03-04T05:10:30;95491.75;;;3.91;80.47
77288;BME280;66345;42.694;23.346;2023-03-04T05:12:55;95494.09;;;3.94;81.34
77288;BME280;66345;42.694;23.346;2023-03-04T05:15:21;95489.25;;;4.17;80.19
77288;BME280;66345;42.694;23.346;2023-03-04T05:17:46;95493.31;;;4.47;79.89
77288;BME280;66345;42.694;23.346;2023-03-04T05:20:12;95486.81;;;4.59;79.90
77288;BME280;66345;42.694;23.346;2023-03-04T05:22:37;95496.06;;;4.63;78.96
77288;BME280;66345;42.694;23.346;2023-03-04T05:25:03;95492.44;;;5.08;78.28
77288;BME280;66345;42.694;23.346;2023-03-04T05:27:28;95489.66;;;5.10;77.21
77288;BME280;66345;42.694;23.346;2023-03-04T05:29:54;95491.94;;;4.61;78.99
77288;BME280;66345;42.694;23.346;2023-03-04T05:32:23;95506.91;;;4.25;80.69
77288;BME280;66345;42.694;23.346;2023-03-04T05:34:49;95513.91;;;4.06;81.61
77288;BME280;66345;42.694;23.346;2023-03-04T05:37:14;95501.25;;;4.20;81.50
77288;BME280;66345;42.694;23.346;2023-03-04T05:39:40;95507.47;;;4.36;81.64
77288;BME280;66345;42.694;23.346;2023-03-04T05:42:05;95499.69;;;4.62;81.59
77288;BME280;66345;42.694;23.346;2023-03-04T05:44:31;95501.06;;;4.92;79.99
77288;BME280;66345;42.694;23.346;2023-03-04T05:46:56;95502.00;;;5.09;79.35
77288;BME280;66345;42.694;23.346;2023-03-04T05:49:22;95499.72;;;5.14;78.58
77288;BME280;66345;42.694;23.346;2023-03-04T05:51:47;95504.06;;;5.23;79.05
77288;BME280;66345;42.694;23.346;2023-03-04T05:54:14;95503.84;;;5.17;79.13
77288;BME280;66345;42.694;23.346;2023-03-04T05:56:40;95508.91;;;5.10;80.28
77288;BME280;66345;42.694;23.346;2023-03-04T05:59:05;95514.66;;;5.40;78.87
77288;BME280;66345;42.694;23.346;2023-03-04T06:01:31;95505.56;;;5.60;77.91
77288;BME280;66345;42.694;23.346;2023-03-04T06:03:56;95506.59;;;5.67;78.05
77288;BME280;66345;42.694;23.346;2023-03-04T06:06:22;95511.66;;;5.61;77.73
77288;BME280;66345;42.694;23.346;2023-03-04T06:08:47;95515.91;;;5.96;76.27
77288;BME280;66345;42.694;23.346;2023-03-04T06:11:12;95511.00;;;6.01;75.92
77288;BME280;66345;42.694;23.346;2023-03-04T06:13:38;95514.44;;;5.93;76.90
77288;BME280;66345;42.694;23.346;2023-03-04T06:16:04;95518.81;;;5.84;76.68
77288;BME280;66345;42.694;23.346;2023-03-04T06:18:29;95527.84;;;6.16;76.32
77288;BME280;66345;42.694;23.346;2023-03-04T06:20:59;95510.97;;;6.43;74.68
77288;BME280;66345;42.694;23.346;2023-03-04T06:23:25;95524.31;;;6.58;74.26
77288;BME280;66345;42.694;23.346;2023-03-04T06:25:53;95525.78;;;6.44;74.51
77288;BME280;66345;42.694;23.346;2023-03-04T06:28:19;95527.25;;;6.55;73.45
77288;BME280;66345;42.694;23.346;2023-03-04T06:30:44;95526.63;;;6.53;73.59
77288;BME280;66345;42.694;23.346;2023-03-04T06:33:10;95526.09;;;6.57;73.30
77288;BME280;66345;42.694;23.346;2023-03-04T06:35:35;95523.66;;;6.72;72.98
77288;BME280;66345;42.694;23.346;2023-03-04T06:38:01;95528.28;;;6.86;72.56
77288;BME280;66345;42.694;23.346;2023-03-04T06:40:26;95530.25;;;6.92;71.95
77288;BME280;66345;42.694;23.346;2023-03-04T06:42:52;95522.34;;;6.92;71.92
77288;BME280;66345;42.694;23.346;2023-03-04T06:45:17;95529.75;;;7.13;71.61
77288;BME280;66345;42.694;23.346;2023-03-04T06:47:42;95523.31;;;7.08;70.43
77288;BME280;66345;42.694;23.346;2023-03-04T06:50:10;95527.13;;;7.21;70.47
77288;BME280;66345;42.694;23.346;2023-03-04T06:52:36;95535.38;;;7.27;70.79
77288;BME280;66345;42.694;23.346;2023-03-04T06:55:02;95535.63;;;7.48;69.05
77288;BME280;66345;42.694;23.346;2023-03-04T06:57:27;95539.09;;;7.57;69.13
77288;BME280;66345;42.694;23.346;2023-03-04T06:59:53;95534.00;;;7.39;69.47
77288;BME280;66345;42.694;23.346;2023-03-04T07:02:18;95534.34;;;7.44;69.38
77288;BME280;66345;42.694;23.346;2023-03-04T07:04:44;95537.16;;;7.42;69.65
77288;BME280;66345;42.694;23.346;2023-03-04T07:07:10;95547.22;;;7.31;69.73
77288;BME280;66345;42.694;23.346;2023-03-04T07:09:35;95545.75;;;7.28;69.41
77288;BME280;66345;42.694;23.346;2023-03-04T07:12:01;95541.75;;;7.32;69.32
77288;BME280;66345;42.694;23.346;2023-03-04T07:14:27;95544.59;;;7.14;69.80
77288;BME280;66345;42.694;23.346;2023-03-04T07:16:52;95537.34;;;7.16;69.68
77288;BME280;66345;42.694;23.346;2023-03-04T07:19:17;95547.91;;;6.76;70.61
77288;BME280;66345;42.694;23.346;2023-03-04T07:21:43;95551.16;;;6.53;72.42
77288;BME280;66345;42.694;23.346;2023-03-04T07:24:08;95549.69;;;6.59;72.18
77288;BME280;66345;42.694;23.346;2023-03-04T07:26:34;95550.72;;;6.82;70.44
77288;BME280;66345;42.694;23.346;2023-03-04T07:29:02;95547.41;;;6.97;70.03
77288;BME280;66345;42.694;23.346;2023-03-04T07:31:30;95545.09;;;6.93;70.52
77288;BME280;66345;42.694;23.346;2023-03-04T07:33:58;95545.56;;;7.30;69.17
77288;BME280;66345;42.694;23.346;2023-03-04T07:36:24;95534.03;;;7.22;68.66
77288;BME280;66345;42.694;23.346;2023-03-04T07:38:50;95548.72;;;7.09;69.18
77288;BME280;66345;42.694;23.346;2023-03-04T07:41:19;95548.00;;;7.56;68.08
77288;BME280;66345;42.694;23.346;2023-03-04T07:43:44;95552.81;;;7.44;67.61
77288;BME280;66345;42.694;23.346;2023-03-04T07:46:10;95546.38;;;7.38;67.04
77288;BME280;66345;42.694;23.346;2023-03-04T07:48:36;95548.03;;;7.31;67.99
77288;BME280;66345;42.694;23.346;2023-03-04T07:51:16;95541.59;;;7.50;68.60
77288;BME280;66345;42.694;23.346;2023-03-04T07:53:44;95538.16;;;7.33;69.53
77288;BME280;66345;42.694;23.346;2023-03-04T07:56:19;95540.81;;;7.33;68.85
77288;BME280;66345;42.694;23.346;2023-03-04T07:58:44;95545.41;;;7.15;70.43
77288;BME280;66345;42.694;23.346;2023-03-04T08:01:16;95540.78;;;7.25;71.06
77288;BME280;66345;42.694;23.346;2023-03-04T08:03:42;95543.44;;;7.09;71.10
77288;BME280;66345;42.694;23.346;2023-03-04T08:06:10;95536.16;;;7.35;69.77
77288;BME280;66345;42.694;23.346;2023-03-04T08:08:36;95537.81;;;7.92;68.01
77288;BME280;66345;42.694;23.346;2023-03-04T08:11:13;95539.78;;;7.50;68.21
77288;BME280;66345;42.694;23.346;2023-03-04T08:13:38;95533.16;;;7.55;68.98
77288;BME280;66345;42.694;23.346;2023-03-04T08:16:05;95537.13;;;7.59;68.87
77288;BME280;66345;42.694;23.346;2023-03-04T08:18:30;95533.13;;;7.71;68.34
77288;BME280;66345;42.694;23.346;2023-03-04T08:20:56;95539.81;;;7.34;69.79
77288;BME280;66345;42.694;23.346;2023-03-04T08:23:21;95538.78;;;7.43;67.91
77288;BME280;66345;42.694;23.346;2023-03-04T08:25:47;95533.66;;;7.58;67.73
77288;BME280;66345;42.694;23.346;2023-03-04T08:28:13;95535.56;;;7.81;66.63
77288;BME280;66345;42.694;23.346;2023-03-04T08:30:39;95530.28;;;7.81;66.54
77288;BME280;66345;42.694;23.346;2023-03-04T08:33:05;95532.84;;;7.97;67.61
77288;BME280;66345;42.694;23.346;2023-03-04T08:35:32;95537.16;;;7.42;69.62
77288;BME280;66345;42.694;23.346;2023-03-04T08:37:57;95530.84;;;7.51;69.67
77288;BME280;66345;42.694;23.346;2023-03-04T08:40:23;95533.84;;;7.40;70.42
77288;BME280;66345;42.694;23.346;2023-03-04T08:42:50;95527.56;;;7.49;68.82
77288;BME280;66345;42.694;23.346;2023-03-04T08:45:16;95528.78;;;7.78;67.80
77288;BME280;66345;42.694;23.346;2023-03-04T08:47:41;95529.31;;;7.73;67.68
77288;BME280;66345;42.694;23.346;2023-03-04T08:50:07;95520.16;;;7.92;67.66
77288;BME280;66345;42.694;23.346;2023-03-04T08:52:33;95528.41;;;7.97;67.65
77288;BME280;66345;42.694;23.346;2023-03-04T08:54:58;95519.66;;;7.97;67.65
77288;BME280;66345;42.694;23.346;2023-03-04T08:57:24;95520.59;;;8.04;67.77
77288;BME280;66345;42.694;23.346;2023-03-04T08:59:50;95525.31;;;7.77;68.00
77288;BME280;66345;42.694;23.346;2023-03-04T09:02:15;95519.28;;;8.00;67.04
77288;BME280;66345;42.694;23.346;2023-03-04T09:04:40;95523.63;;;8.32;65.58
77288;BME280;66345;42.694;23.346;2023-03-04T09:07:06;95515.31;;;8.43;64.97
77288;BME280;66345;42.694;23.346;2023-03-04T09:09:33;95509.72;;;8.61;64.01
77288;BME280;66345;42.694;23.346;2023-03-04T09:11:59;95506.91;;;8.85;63.68
77288;BME280;66345;42.694;23.346;2023-03-04T09:14:24;95500.81;;;9.23;62.26
77288;BME280;66345;42.694;23.346;2023-03-04T09:16:50;95511.38;;;8.39;64.11
77288;BME280;66345;42.694;23.346;2023-03-04T09:19:15;95508.81;;;8.54;64.24
77288;BME280;66345;42.694;23.346;2023-03-04T09:21:40;95506.09;;;8.62;63.44
77288;BME280;66345;42.694;23.346;2023-03-04T09:24:06;95501.22;;;8.51;64.29
77288;BME280;66345;42.694;23.346;2023-03-04T09:26:31;95498.38;;;8.52;63.69
77288;BME280;66345;42.694;23.346;2023-03-04T09:28:58;95494.31;;;9.10;62.15
77288;BME280;66345;42.694;23.346;2023-03-04T09:31:25;95489.50;;;9.58;61.13
77288;BME280;66345;42.694;23.346;2023-03-04T09:33:51;95496.53;;;9.81;60.40
77288;BME280;66345;42.694;23.346;2023-03-04T09:36:17;95492.13;;;9.29;61.55
77288;BME280;66345;42.694;23.346;2023-03-04T09:38:43;95486.00;;;9.28;61.56
77288;BME280;66345;42.694;23.346;2023-03-04T09:41:16;95490.44;;;9.65;60.65
77288;BME280;66345;42.694;23.346;2023-03-04T09:43:43;95495.91;;;8.74;63.00
77288;BME280;66345;42.694;23.346;2023-03-04T09:46:14;95493.59;;;8.25;63.90
77288;BME280;66345;42.694;23.346;2023-03-04T09:48:51;95500.25;;;8.13;65.17
77288;BME280;66345;42.694;23.346;2023-03-04T09:51:35;95493.00;;;8.06;64.98
77288;BME280;66345;42.694;23.346;2023-03-04T09:54:41;95493.34;;;8.03;65.15
77288;BME280;66345;42.694;23.346;2023-03-04T09:57:26;95492.16;;;7.75;66.38
77288;BME280;66345;42.694;23.346;2023-03-04T10:00:14;95482.06;;;7.87;66.06
77288;BME280;66345;42.694;23.346;2023-03-04T10:03:03;95476.31;;;9.21;61.10
77288;BME280;66345;42.694;23.346;2023-03-04T10:05:31;95477.59;;;9.10;61.28
77288;BME280;66345;42.694;23.346;2023-03-04T10:10:47;95467.91;;;9.02;60.94
77288;BME280;66345;42.694;23.346;2023-03-04T10:13:17;95459.34;;;9.00;61.07
77288;BME280;66345;42.694;23.346;2023-03-04T10:15:48;95466.94;;;9.92;58.64
77288;BME280;66345;42.694;23.346;2023-03-04T10:18:27;95461.09;;;10.33;56.62
77288;BME280;66345;42.694;23.346;2023-03-04T10:23:28;95452.28;;;10.90;54.21
77288;BME280;66345;42.694;23.346;2023-03-04T10:25:54;95445.91;;;11.40;53.22
77288;BME280;66345;42.694;23.346;2023-03-04T10:28:25;95443.75;;;11.91;51.96
77288;BME280;66345;42.694;23.346;2023-03-04T10:31:11;95439.38;;;12.32;50.61
77288;BME280;66345;42.694;23.346;2023-03-04T10:33:39;95429.50;;;12.06;50.88
77288;BME280;66345;42.694;23.346;2023-03-04T10:36:38;95427.25;;;12.03;51.34
77288;BME280;66345;42.694;23.346;2023-03-04T10:39:16;95423.34;;;11.99;51.57
77288;BME280;66345;42.694;23.346;2023-03-04T10:41:45;95425.03;;;11.78;51.44
77288;BME280;66345;42.694;23.346;2023-03-04T10:44:17;95418.81;;;11.92;51.48
77288;BME280;66345;42.694;23.346;2023-03-04T10:46:47;95407.22;;;12.13;51.28
77288;BME280;66345;42.694;23.346;2023-03-04T10:49:16;95412.56;;;12.20;51.09
77288;BME280;66345;42.694;23.346;2023-03-04T10:52:01;95413.31;;;11.94;51.35
77288;BME280;66345;42.694;23.346;2023-03-04T10:54:31;95404.66;;;11.85;51.71
77288;BME280;66345;42.694;23.346;2023-03-04T10:57:02;95395.03;;;11.84;51.39
77288;BME280;66345;42.694;23.346;2023-03-04T10:59:58;95406.16;;;10.48;55.25
77288;BME280;66345;42.694;23.346;2023-03-04T11:02:32;95403.97;;;10.51;55.14
77288;BME280;66345;42.694;23.346;2023-03-04T11:08:01;95393.13;;;11.65;53.01
77288;BME280;66345;42.694;23.346;2023-03-04T11:13:18;95373.81;;;11.50;52.31
77288;BME280;66345;42.694;23.346;2023-03-04T11:16:03;95372.47;;;11.32;52.91
77288;BME280;66345;42.694;23.346;2023-03-04T11:18:41;95374.72;;;11.29;52.81
77288;BME280;66345;42.694;23.346;2023-03-04T11:21:16;95373.97;;;10.51;55.41
77288;BME280;66345;42.694;23.346;2023-03-04T11:24:00;95355.34;;;11.00;54.05
77288;BME280;66345;42.694;23.346;2023-03-04T11:34:28;95344.81;;;11.14;53.88
77288;BME280;66345;42.694;23.346;2023-03-04T11:36:58;95343.59;;;12.18;51.04
77288;BME280;66345;42.694;23.346;2023-03-04T11:44:54;95331.34;;;11.15;52.77
77288;BME280;66345;42.694;23.346;2023-03-04T11:47:21;95326.06;;;11.22;53.44
77288;BME280;66345;42.694;23.346;2023-03-04T12:28:00;95293.38;;;10.09;57.64
77288;BME280;66345;42.694;23.346;2023-03-04T12:44:46;95286.69;;;10.13;57.85
77288;BME280;66345;42.694;23.346;2023-03-04T12:47:32;95275.19;;;10.27;57.81
77288;BME280;66345;42.694;23.346;2023-03-04T12:55:43;95258.09;;;10.93;55.41
77288;BME280;66345;42.694;23.346;2023-03-04T12:58:15;95259.03;;;11.20;54.16
77288;BME280;66345;42.694;23.346;2023-03-04T13:01:08;95261.28;;;11.23;53.95
77288;BME280;66345;42.694;23.346;2023-03-04T13:11:42;95243.59;;;10.95;54.43
77288;BME280;66345;42.694;23.346;2023-03-04T13:16:49;95244.63;;;10.60;55.99
77288;BME280;66345;42.694;23.346;2023-03-04T13:19:46;95245.41;;;10.53;56.50
77288;BME280;66345;42.694;23.346;2023-03-04T13:22:41;95242.19;;;10.58;55.60
77288;BME280;66345;42.694;23.346;2023-03-04T13:28:11;95238.47;;;10.52;56.38
77288;BME280;66345;42.694;23.346;2023-03-04T13:35:47;95224.84;;;10.62;56.09
77288;BME280;66345;42.694;23.346;2023-03-04T13:38:33;95226.53;;;10.70;55.92
77288;BME280;66345;42.694;23.346;2023-03-04T13:51:30;95226.25;;;9.59;59.06
77288;BME280;66345;42.694;23.346;2023-03-04T13:56:34;95220.63;;;9.26;59.62
77288;BME280;66345;42.694;23.346;2023-03-04T14:01:59;95214.78;;;9.52;59.26
77288;BME280;66345;42.694;23.346;2023-03-04T14:04:28;95215.28;;;9.62;59.34
77288;BME280;66345;42.694;23.346;2023-03-04T14:06:56;95201.75;;;10.00;58.24
77288;BME280;66345;42.694;23.346;2023-03-04T14:09:32;95197.78;;;10.39;56.58
77288;BME280;66345;42.694;23.346;2023-03-04T14:12:01;95193.91;;;10.41;56.97
77288;BME280;66345;42.694;23.346;2023-03-04T14:17:43;95194.06;;;10.33;57.21
77288;BME280;66345;42.694;23.346;2023-03-04T14:20:06;95193.84;;;10.35;57.32
77288;BME280;66345;42.694;23.346;2023-03-04T14:22:45;95187.41;;;10.44;56.32
77288;BME280;66345;42.694;23.346;2023-03-04T14:25:21;95190.22;;;10.36;56.84
77288;BME280;66345;42.694;23.346;2023-03-04T14:27:48;95182.88;;;10.38;56.64
77288;BME280;66345;42.694;23.346;2023-03-04T14:30:28;95185.09;;;10.34;56.96
77288;BME280;66345;42.694;23.346;2023-03-04T14:32:56;95172.22;;;10.66;56.38
77288;BME280;66345;42.694;23.346;2023-03-04T14:35:30;95176.78;;;10.85;55.15
77288;BME280;66345;42.694;23.346;2023-03-04T14:38:23;95183.91;;;10.37;56.88
77288;BME280;66345;42.694;23.346;2023-03-04T14:41:09;95179.72;;;9.99;58.33
77288;BME280;66345;42.694;23.346;2023-03-04T14:46:16;95172.06;;;10.11;57.81
77288;BME280;66345;42.694;23.346;2023-03-04T14:48:48;95177.66;;;9.95;58.56
77288;BME280;66345;42.694;23.346;2023-03-04T14:53:57;95160.56;;;10.60;56.18
77288;BME280;66345;42.694;23.346;2023-03-04T14:56:27;95159.50;;;10.54;56.29
77288;BME280;66345;42.694;23.346;2023-03-04T14:58:55;95164.03;;;10.26;57.18
77288;BME280;66345;42.694;23.346;2023-03-04T15:01:29;95160.69;;;10.17;57.74
77288;BME280;66345;42.694;23.346;2023-03-04T15:03:58;95147.75;;;10.29;57.53
77288;BME280;66345;42.694;23.346;2023-03-04T15:06:27;95160.47;;;10.47;56.57
77288;BME280;66345;42.694;23.346;2023-03-04T15:09:04;95146.97;;;10.42;57.06
77288;BME280;66345;42.694;23.346;2023-03-04T15:12:06;95148.84;;;10.48;56.92
77288;BME280;66345;42.694;23.346;2023-03-04T15:14:49;95145.38;;;10.47;56.68
77288;BME280;66345;42.694;23.346;2023-03-04T15:17:36;95147.94;;;10.34;58.06
77288;BME280;66345;42.694;23.346;2023-03-04T15:22:35;95135.09;;;10.31;56.99
77288;BME280;66345;42.694;23.346;2023-03-04T15:25:01;95143.34;;;10.15;57.68